Time;durP1;ratioP1;P1;durP2;ratioP2;P2;SDS_P1;SDS_P2;PMS_P1;PMS_P2;Temp;Humidity;BMP_temperature;BMP_pressure;BME280_temperature;BME280_humidity;BME280_pressure;Samples;Min_cycle;Max_cycle;Signal;HPM_P1;HPM_P2
2022/05/01 00:00:23;;;;;;;40.45;15.80;;;;;;;5.35;100.00;100886.75;6253610;22;20030;-65
2022/05/01 00:03:07;;;;;;;34.85;16.50;;;;;;;5.20;100.00;100858.44;6253637;22;20513;-66
2022/05/01 00:05:52;;;;;;;38.05;16.30;;;;;;;5.37;100.00;100888.53;6287094;22;20030;-72
2022/05/01 00:08:40;;;;;;;49.47;17.60;;;;;;;5.39;100.00;100883.31;6231400;22;20350;-67
2022/05/01 00:11:24;;;;;;;43.88;16.90;;;;;;;5.29;100.00;100884.88;6263964;22;20461;-69
2022/05/01 00:14:09;;;;;;;48.22;18.30;;;;;;;5.33;100.00;100886.72;6286916;22;20042;-67
2022/05/01 00:16:53;;;;;;;44.58;18.48;;;;;;;5.35;100.00;100885.03;6232064;22;20054;-65
2022/05/01 00:19:38;;;;;;;49.90;17.38;;;;;;;5.29;100.00;100878.75;6231981;22;20022;-66
2022/05/01 00:22:22;;;;;;;48.00;18.38;;;;;;;5.31;100.00;100890.19;6242320;22;20469;-65
2022/05/01 00:25:07;;;;;;;46.00;19.43;;;;;;;5.25;100.00;100893.56;6232401;22;20041;-65
2022/05/01 00:27:51;;;;;;;41.47;18.15;;;;;;;5.16;100.00;100887.25;6287063;22;20301;-65
2022/05/01 00:30:37;;;;;;;40.67;17.25;;;;;;;5.16;100.00;100888.16;6253774;22;20078;-67
2022/05/01 00:36:27;;;;;;;46.05;18.92;;;;;;;4.96;100.00;100864.09;6287217;22;20026;-66
2022/05/01 00:39:12;;;;;;;44.63;18.05;;;;;;;5.02;100.00;100881.72;6241652;22;20030;-66
2022/05/01 00:41:56;;;;;;;44.08;18.98;;;;;;;4.90;100.00;100899.88;6253607;22;20461;-65
2022/05/01 00:44:40;;;;;;;46.75;19.42;;;;;;;4.75;100.00;100902.22;6286885;22;20034;-66
2022/05/01 00:47:25;;;;;;;53.97;19.20;;;;;;;4.63;100.00;100899.31;6286623;22;20062;-65
2022/05/01 00:50:09;;;;;;;37.43;16.67;;;;;;;4.56;100.00;100898.28;6253307;22;20493;-66
2022/05/01 00:52:54;;;;;;;35.40;14.48;;;;;;;4.40;100.00;100890.91;6286523;22;20099;-66
2022/05/01 00:55:39;;;;;;;35.47;14.70;;;;;;;4.32;100.00;100886.38;6276620;22;20077;-64
2022/05/01 00:58:24;;;;;;;31.40;12.93;;;;;;;4.31;100.00;100909.09;6286531;22;20746;-66
2022/05/01 01:01:10;;;;;;;27.50;12.70;;;;;;;4.27;100.00;100903.72;6264039;22;20097;-66
2022/05/01 01:03:54;;;;;;;26.55;11.57;;;;;;;4.28;100.00;100914.25;6286773;22;20134;-66
2022/05/01 01:06:44;;;;;;;25.05;10.38;;;;;;;4.34;100.00;100900.41;6263507;22;20031;-65
2022/05/01 01:09:29;;;;;;;24.90;10.00;;;;;;;4.39;100.00;100909.25;6286451;22;20061;-65
2022/05/01 01:15:29;;;;;;;28.83;9.82;;;;;;;4.65;100.00;100909.00;6286415;22;20049;-66
2022/05/01 01:18:13;;;;;;;24.58;10.27;;;;;;;4.60;100.00;100901.88;6264154;22;20023;-66
2022/05/01 01:20:57;;;;;;;20.77;9.23;;;;;;;4.28;100.00;100906.38;6256771;22;20030;-66
2022/05/01 01:23:42;;;;;;;22.05;9.82;;;;;;;4.45;100.00;100907.69;6288694;22;20031;-65
2022/05/01 01:26:29;;;;;;;24.58;10.00;;;;;;;4.32;100.00;100907.38;6263242;22;20126;-65
2022/05/01 01:32:26;;;;;;;18.60;8.68;;;;;;;4.12;100.00;100899.00;6182462;23;20027;-65
2022/05/01 01:35:11;;;;;;;25.63;10.13;;;;;;;3.91;100.00;100901.13;6192163;23;20549;-66
2022/05/01 01:37:55;;;;;;;;;;;;;;;4.05;100.00;100909.34;6171983;23;20059;-66
2022/05/01 01:40:53;;;;;;;27.35;10.07;;;;;;;3.91;100.00;100906.38;6161903;23;19943;-67
2022/05/01 01:43:42;;;;;;;24.83;9.65;;;;;;;3.84;100.00;100901.81;6192777;23;20028;-66
2022/05/01 01:46:26;;;;;;;27.05;9.48;;;;;;;3.95;100.00;100905.59;6168650;23;20351;-65
2022/05/01 01:49:11;;;;;;;21.30;9.60;;;;;;;3.84;100.00;100895.72;6161725;23;20036;-67
2022/05/01 01:51:55;;;;;;;26.40;10.25;;;;;;;3.64;100.00;100873.34;6191380;23;20120;-66
2022/05/01 01:54:40;;;;;;;19.55;10.50;;;;;;;3.99;100.00;100904.81;6192129;23;20028;-65
2022/05/01 01:57:24;;;;;;;25.23;10.20;;;;;;;4.02;100.00;100904.91;6193910;23;20101;-66
2022/05/01 02:00:10;;;;;;;21.98;9.68;;;;;;;4.12;100.00;100892.91;6162482;23;20031;-66
2022/05/01 02:03:01;;;;;;;23.08;10.13;;;;;;;4.23;100.00;100905.41;6171750;23;20064;-65
2022/05/01 02:05:48;;;;;;;30.48;11.07;;;;;;;4.14;100.00;100907.81;6170358;23;20097;-67
2022/05/01 02:08:36;;;;;;;27.02;9.85;;;;;;;3.94;100.00;100853.97;6203879;22;20034;-66
2022/05/01 02:11:21;;;;;;;23.67;10.73;;;;;;;4.39;100.00;100914.50;6284814;22;20030;-65
2022/05/01 02:14:05;;;;;;;29.60;10.32;;;;;;;4.30;100.00;100909.06;6285263;22;20082;-67
2022/05/01 02:16:50;;;;;;;25.70;9.35;;;;;;;4.42;100.00;100911.97;6283831;22;20354;-65
2022/05/01 02:19:34;;;;;;;23.88;9.85;;;;;;;4.46;100.00;100913.81;6260382;22;20027;-65
2022/05/01 02:22:21;;;;;;;26.15;10.05;;;;;;;4.53;100.00;100914.00;6286081;22;20413;-66
2022/05/01 02:25:10;;;;;;;25.38;10.23;;;;;;;4.60;100.00;100915.00;6284683;22;20073;-66
2022/05/01 02:27:55;;;;;;;25.42;10.35;;;;;;;4.60;100.00;100912.38;6252490;22;20140;-66
2022/05/01 02:30:40;;;;;;;17.33;9.18;;;;;;;4.60;100.00;100920.25;6249960;22;20036;-66
2022/05/01 02:33:25;;;;;;;19.98;9.73;;;;;;;4.48;100.00;100920.84;6286977;22;20070;-65
2022/05/01 02:36:09;;;;;;;23.60;9.85;;;;;;;4.40;100.00;100911.06;6264367;22;20102;-66
2022/05/01 02:38:54;;;;;;;21.13;10.70;;;;;;;4.19;100.00;100879.94;6264478;22;20026;-67
2022/05/01 02:41:38;;;;;;;20.08;9.23;;;;;;;4.35;100.00;100897.81;6285922;22;20074;-65
2022/05/01 02:44:23;;;;;;;19.83;9.07;;;;;;;4.60;100.00;100915.88;6264772;22;20066;-67
2022/05/01 02:47:07;;;;;;;27.67;9.65;;;;;;;4.77;100.00;100924.13;6253159;22;20029;-64
2022/05/01 02:49:52;;;;;;;24.75;9.73;;;;;;;4.86;100.00;100917.34;6287916;22;20062;-66
2022/05/01 02:52:36;;;;;;;20.85;10.25;;;;;;;4.96;100.00;100923.66;6264224;22;20026;-64
2022/05/01 02:55:21;;;;;;;23.73;9.52;;;;;;;5.02;100.00;100920.28;6287329;22;20023;-66
2022/05/01 02:58:05;;;;;;;22.67;9.43;;;;;;;5.06;100.00;100922.13;6252285;22;20125;-65
2022/05/01 03:00:49;;;;;;;19.63;9.20;;;;;;;4.78;100.00;100886.47;6253007;22;20334;-66
2022/05/01 03:03:34;;;;;;;24.77;9.73;;;;;;;5.02;100.00;100920.28;6254052;22;20683;-65
2022/05/01 03:06:18;;;;;;;22.15;9.75;;;;;;;4.77;100.00;100901.38;6289218;22;20022;-65
2022/05/01 03:09:04;;;;;;;18.50;8.68;;;;;;;4.80;100.00;100890.03;6254676;22;20030;-66
2022/05/01 03:11:48;;;;;;;18.02;9.63;;;;;;;4.97;100.00;100918.44;6232802;22;20046;-66
2022/05/01 03:14:33;;;;;;;20.13;8.85;;;;;;;4.79;100.00;100928.56;6287111;22;20404;-65
2022/05/01 03:17:17;;;;;;;20.45;9.32;;;;;;;4.57;100.00;100914.94;6287753;22;20465;-66
2022/05/01 03:23:05;;;;;;;22.20;9.02;;;;;;;4.78;100.00;100934.69;6257858;22;20030;-66
2022/05/01 03:25:49;;;;;;;17.77;9.63;;;;;;;4.59;100.00;100929.00;6282187;22;20077;-65
2022/05/01 03:28:33;;;;;;;24.13;10.02;;;;;;;4.56;100.00;100928.94;6275446;22;20087;-66
2022/05/01 03:31:18;;;;;;;25.95;9.75;;;;;;;4.54;100.00;100936.75;6248962;22;20373;-66
2022/05/01 03:34:04;;;;;;;25.27;10.00;;;;;;;4.61;100.00;100932.53;6271246;22;20031;-75
2022/05/01 03:36:48;;;;;;;24.63;10.15;;;;;;;4.54;100.00;100914.84;6249039;22;20354;-64
2022/05/01 03:39:34;;;;;;;24.02;10.38;;;;;;;4.89;100.00;100940.16;6225226;22;20050;-64
2022/05/01 03:42:18;;;;;;;25.58;10.38;;;;;;;4.90;100.00;100929.69;6227541;22;20030;-66
2022/05/01 03:45:03;;;;;;;24.17;10.82;;;;;;;4.99;100.00;100931.63;6271404;22;20473;-66
2022/05/01 03:47:48;;;;;;;30.38;10.95;;;;;;;4.70;100.00;100909.97;6272037;22;20499;-65
2022/05/01 03:50:32;;;;;;;23.73;10.43;;;;;;;4.82;100.00;100939.16;6227309;22;20485;-65
2022/05/01 03:53:16;;;;;;;25.05;10.48;;;;;;;4.77;100.00;100937.25;6248526;22;20027;-71
2022/05/01 03:56:01;;;;;;;25.13;10.10;;;;;;;4.66;100.00;100925.63;6282205;22;20034;-65
2022/05/01 03:58:45;;;;;;;22.17;10.50;;;;;;;4.74;100.00;100929.31;6256901;22;20062;-71
2022/05/01 04:01:33;;;;;;;20.80;9.87;;;;;;;4.85;100.00;100938.31;6249091;22;20050;-65
2022/05/01 04:04:19;;;;;;;18.70;10.45;;;;;;;4.88;100.00;100931.38;6271297;22;20094;-66
2022/05/01 04:07:04;;;;;;;20.15;9.88;;;;;;;4.98;100.00;100945.59;6248476;22;20155;-68
2022/05/01 04:09:48;;;;;;;19.48;10.10;;;;;;;4.78;100.00;100908.41;6258543;22;20034;-66
2022/05/01 04:12:37;;;;;;;22.70;10.37;;;;;;;5.03;100.00;100928.19;6248666;22;20070;-69
2022/05/01 04:15:22;;;;;;;22.48;10.25;;;;;;;5.18;100.00;100936.38;6251691;22;20265;-65
2022/05/01 04:18:09;;;;;;;16.13;9.48;;;;;;;5.27;100.00;100936.59;6290860;22;20033;-65
2022/05/01 04:20:53;;;;;;;20.27;9.65;;;;;;;5.58;100.00;100941.53;6276645;22;20364;-69
2022/05/01 04:23:38;;;;;;;19.50;9.43;;;;;;;5.59;100.00;100938.06;6247554;22;20133;-67
2022/05/01 04:26:23;;;;;;;23.13;9.80;;;;;;;5.69;100.00;100939.13;6279471;22;20026;-68
2022/05/01 04:32:10;;;;;;;16.98;9.20;;;;;;;5.88;100.00;100909.66;6279266;22;20372;-66
2022/05/01 04:34:54;;;;;;;23.60;11.25;;;;;;;6.06;100.00;100944.19;6281137;22;20065;-66
2022/05/01 04:37:39;;;;;;;24.02;9.13;;;;;;;6.01;100.00;100941.47;6270381;22;20081;-67
2022/05/01 04:40:23;;;;;;;19.43;8.20;;;;;;;5.95;100.00;100909.81;6202168;22;20412;-69
2022/05/01 04:43:12;;;;;;;15.52;7.97;;;;;;;5.68;100.00;100840.88;6279388;22;20030;-70
2022/05/01 04:45:58;;;;;;;18.88;8.18;;;;;;;6.26;100.00;100948.03;6285919;22;20026;-66
2022/05/01 04:48:43;;;;;;;16.20;7.65;;;;;;;6.21;100.00;100905.81;6253076;22;20153;-65
2022/05/01 04:51:27;;;;;;;17.17;7.53;;;;;;;6.52;100.00;100944.94;6286477;22;20027;-66
2022/05/01 04:54:11;;;;;;;15.52;7.25;;;;;;;6.68;100.00;100943.44;6252489;22;20109;-66
2022/05/01 04:57:05;;;;;;;14.65;7.85;;;;;;;6.74;100.00;100946.13;6262804;22;20476;-66
2022/05/01 04:59:49;;;;;;;13.23;6.82;;;;;;;6.62;100.00;100911.72;6253015;22;20302;-65
2022/05/01 05:02:38;;;;;;;10.25;6.45;;;;;;;6.87;100.00;100941.06;6231582;22;20023;-66
2022/05/01 05:05:24;;;;;;;16.80;6.20;;;;;;;6.91;100.00;100910.34;6286139;22;20041;-66
2022/05/01 05:11:12;;;;;;;12.85;5.15;;;;;;;7.34;100.00;100945.19;6253233;22;20111;-67
2022/05/01 05:13:57;;;;;;;11.77;4.83;;;;;;;7.48;100.00;100943.56;6231818;22;20026;-67
2022/05/01 05:16:43;;;;;;;12.10;4.70;;;;;;;7.50;100.00;100949.75;6252525;22;20739;-66
2022/05/01 05:19:27;;;;;;;9.95;4.75;;;;;;;7.53;100.00;100933.97;6253933;22;20026;-66
2022/05/01 05:22:12;;;;;;;9.73;4.65;;;;;;;7.64;100.00;100947.28;6292269;22;20093;-67
2022/05/01 05:24:57;;;;;;;8.48;4.47;;;;;;;7.83;100.00;100942.19;6269590;22;20078;-67
2022/05/01 05:27:42;;;;;;;11.98;4.72;;;;;;;7.84;100.00;100904.31;6232284;22;20466;-66
2022/05/01 05:30:26;;;;;;;9.65;4.32;;;;;;;8.08;100.00;100930.94;6252724;22;20177;-67
2022/05/01 05:33:11;;;;;;;8.70;3.90;;;;;;;8.24;100.00;100939.94;6263081;22;20365;-67
2022/05/01 05:35:55;;;;;;;8.80;3.85;;;;;;;8.28;97.80;100933.81;6286259;22;20074;-66
2022/05/01 05:38:39;;;;;;;9.80;3.40;;;;;;;8.36;95.79;100925.06;6286253;22;20026;-65
2022/05/01 05:41:24;;;;;;;6.22;3.13;;;;;;;8.41;93.09;100925.97;6252728;22;20022;-66
2022/05/01 05:44:09;;;;;;;5.30;2.60;;;;;;;8.44;89.03;100928.66;6275014;22;20117;-67
2022/05/01 05:46:53;;;;;;;;;;;;;;;8.43;86.33;100918.94;6263496;22;20030;-66
2022/05/01 05:49:37;;;;;;;4.68;2.50;;;;;;;8.42;86.90;100917.16;6285700;22;20008;-66
2022/05/01 05:52:22;;;;;;;7.22;2.50;;;;;;;8.46;87.19;100924.25;6286161;22;20074;-67
2022/05/01 05:55:07;;;;;;;4.97;2.00;;;;;;;8.64;86.24;100911.16;6252800;22;20106;-66
2022/05/01 05:57:51;;;;;;;5.20;2.40;;;;;;;8.70;84.95;100895.31;6252693;22;20081;-66
2022/05/01 06:00:35;;;;;;;4.37;1.70;;;;;;;8.74;78.25;100912.06;6255016;22;20029;-66
2022/05/01 06:03:20;;;;;;;5.32;1.95;;;;;;;8.75;78.11;100919.16;6290730;22;20331;-65
2022/05/01 06:06:05;;;;;;;4.70;1.60;;;;;;;8.81;77.00;100909.47;6262788;22;20026;-66
2022/05/01 06:08:49;;;;;;;4.28;1.90;;;;;;;8.76;75.27;100921.81;6262960;22;20301;-66
2022/05/01 06:11:35;;;;;;;6.57;2.05;;;;;;;8.83;74.77;100904.22;6285526;22;20035;-67
2022/05/01 06:14:20;;;;;;;3.88;1.75;;;;;;;8.99;75.19;100912.19;6285760;22;20401;-66
2022/05/01 06:17:04;;;;;;;4.30;1.52;;;;;;;9.18;74.17;100907.91;6285933;22;20045;-65
2022/05/01 06:19:48;;;;;;;5.32;1.60;;;;;;;9.24;72.44;100906.16;6285157;22;20030;-67
2022/05/01 06:22:33;;;;;;;2.30;1.38;;;;;;;9.22;71.25;100892.00;6252192;22;20035;-68
2022/05/01 06:25:18;;;;;;;1.73;1.17;;;;;;;9.17;71.03;100908.75;6285402;22;20038;-66
2022/05/01 06:28:02;;;;;;;4.57;1.30;;;;;;;9.30;68.62;100902.66;6252496;22;20500;-68
2022/05/01 06:30:49;;;;;;;2.08;1.00;;;;;;;9.57;68.49;100893.88;6231194;22;20050;-67
2022/05/01 06:33:35;;;;;;;5.63;1.25;;;;;;;9.64;64.76;100901.81;6219958;22;20081;-66
2022/05/01 06:36:20;;;;;;;4.93;1.70;;;;;;;9.48;64.19;100895.63;6285879;22;20119;-66
2022/05/01 06:39:04;;;;;;;2.50;1.38;;;;;;;9.64;64.49;100895.66;6285653;22;20077;-67
2022/05/01 06:41:49;;;;;;;4.22;1.40;;;;;;;9.66;63.69;100886.84;6262078;22;20031;-67
2022/05/01 06:44:34;;;;;;;4.03;1.50;;;;;;;9.81;64.75;100899.22;6231680;22;20393;-68
2022/05/01 06:47:19;;;;;;;3.45;1.10;;;;;;;9.83;62.51;100900.09;6262152;22;20073;-67
2022/05/01 06:50:03;;;;;;;6.73;1.30;;;;;;;9.82;57.68;100893.91;6251637;22;20101;-68
2022/05/01 06:52:48;;;;;;;3.33;1.42;;;;;;;9.94;57.84;100872.72;6284811;22;20790;-66
2022/05/01 06:55:34;;;;;;;1.55;1.02;;;;;;;10.02;55.35;100897.47;6252110;22;20031;-70
2022/05/01 06:58:18;;;;;;;3.78;1.33;;;;;;;10.34;56.50;100890.41;6209774;22;20086;-67
2022/05/01 07:01:02;;;;;;;3.30;1.20;;;;;;;10.74;54.97;100885.88;6285437;22;20099;-70
2022/05/01 07:03:47;;;;;;;2.78;1.20;;;;;;;11.13;53.74;100888.41;6252361;22;20489;-71
2022/05/01 07:06:43;;;;;;;;;;;;;;;11.84;55.25;100889.81;6231200;22;20090;-68
2022/05/01 07:09:36;;;;;;;3.22;1.67;;;;;;;12.06;48.16;100878.09;6285256;22;19984;-68
2022/05/01 07:12:21;;;;;;;8.48;2.30;;;;;;;12.63;47.08;100880.19;6208944;22;20030;-70
2022/05/01 07:15:06;;;;;;;4.72;2.30;;;;;;;12.89;43.39;100843.50;6240246;22;20026;-69
2022/05/01 07:17:50;;;;;;;;;;;;;;;13.12;43.41;100877.88;6264219;22;20068;-73
2022/05/01 07:20:35;;;;;;;5.55;2.80;;;;;;;13.30;41.01;100870.53;6232773;22;20353;-74
2022/05/01 07:23:22;;;;;;;5.38;2.25;;;;;;;13.94;40.09;100859.78;6253924;22;20069;-70
2022/05/01 07:26:07;;;;;;;5.10;1.90;;;;;;;14.44;36.47;100865.16;6286609;22;20069;-70
2022/05/01 07:28:51;;;;;;;2.83;1.75;;;;;;;14.69;34.92;100868.25;6211634;22;20058;-69
2022/05/01 07:31:36;;;;;;;4.72;2.05;;;;;;;15.42;34.20;100857.88;6232518;22;20059;-70
2022/05/01 07:34:20;;;;;;;5.25;1.88;;;;;;;15.42;33.00;100833.81;6211358;22;20089;-68
2022/05/01 07:37:04;;;;;;;6.47;1.60;;;;;;;15.49;31.80;100863.03;6231840;22;20031;-68
2022/05/01 07:39:49;;;;;;;3.67;2.17;;;;;;;15.55;32.15;100846.84;6253537;22;20070;-67
2022/05/01 07:42:33;;;;;;;1.90;1.20;;;;;;;16.19;29.31;100852.41;6232109;22;20077;-70
2022/05/01 07:45:18;;;;;;;2.45;1.10;;;;;;;16.65;27.74;100861.00;6232558;22;20102;-67
2022/05/01 07:48:02;;;;;;;3.45;1.30;;;;;;;17.43;25.70;100856.06;6242425;22;20472;-68
2022/05/01 07:50:47;;;;;;;10.18;1.42;;;;;;;18.11;25.13;100859.22;6287398;22;20034;-68
2022/05/01 07:53:34;;;;;;;2.60;1.58;;;;;;;18.37;24.71;100855.69;6253350;22;20354;-67
2022/05/01 07:56:19;;;;;;;2.42;1.40;;;;;;;19.01;23.33;100831.84;6232294;22;20098;-69
2022/05/01 07:59:04;;;;;;;3.20;1.63;;;;;;;19.17;24.12;100826.75;6286853;22;20026;-68
2022/05/01 08:01:48;;;;;;;2.20;1.30;;;;;;;19.17;23.82;100811.50;6286527;22;20041;-69
2022/05/01 08:04:34;;;;;;;2.25;1.38;;;;;;;20.10;23.20;100841.88;6286726;22;20035;-68
2022/05/01 08:07:18;;;;;;;2.75;1.15;;;;;;;20.77;22.20;100841.59;6287488;22;20058;-67
2022/05/01 08:10:03;;;;;;;4.22;2.97;;;;;;;21.30;21.49;100831.09;6232102;22;20085;-69
2022/05/01 08:12:48;;;;;;;3.38;1.52;;;;;;;21.66;21.13;100826.63;6253624;22;20030;-68
2022/05/01 08:15:33;;;;;;;4.85;2.17;;;;;;;20.84;21.47;100826.91;6287121;22;20031;-69
2022/05/01 08:21:21;;;;;;;3.63;1.73;;;;;;;21.96;20.54;100825.19;6253413;22;20054;-69
2022/05/01 08:24:06;;;;;;;2.65;1.60;;;;;;;22.24;20.32;100822.84;6253097;22;20461;-69
2022/05/01 08:26:50;;;;;;;;;;;;;;;22.81;20.81;100819.84;6262785;22;20031;-65
2022/05/01 08:29:39;;;;;;;7.90;5.85;;;;;;;22.78;19.86;100821.84;6262830;22;19918;-70
2022/05/01 08:32:23;;;;;;;7.13;4.78;;;;;;;23.42;19.30;100812.84;6285469;22;20524;-67
2022/05/01 08:35:08;;;;;;;6.78;3.25;;;;;;;22.09;19.65;100788.50;6252138;22;20330;-67
2022/05/01 08:37:52;;;;;;;;;;;;;;;22.97;19.76;100809.94;6286851;22;20535;-69
2022/05/01 08:40:37;;;;;;;6.20;2.30;;;;;;;23.50;18.46;100804.31;6286825;22;19921;-67
2022/05/01 08:43:23;;;;;;;4.60;2.78;;;;;;;24.34;17.54;100804.78;6253936;22;20022;-69
2022/05/01 08:46:31;;;;;;;4.90;2.65;;;;;;;25.82;17.02;100800.72;6263468;22;20035;-67
2022/05/01 08:49:17;;;;;;;4.40;1.80;;;;;;;26.44;15.48;100811.94;6253292;22;20327;-68
2022/05/01 08:52:05;;;;;;;2.92;1.33;;;;;;;25.25;16.29;100785.47;6286156;22;20185;-68
2022/05/01 08:54:51;;;;;;;3.88;1.70;;;;;;;25.51;15.81;100790.09;6286795;22;20043;-69
2022/05/01 08:57:37;;;;;;;2.53;1.35;;;;;;;25.83;16.35;100791.56;6242117;22;20026;-68
2022/05/01 09:00:23;;;;;;;3.35;1.50;;;;;;;25.85;15.91;100761.56;6286326;22;20984;-68
2022/05/01 09:03:07;;;;;;;4.40;1.70;;;;;;;26.11;15.11;100759.84;6262088;22;20026;-69
2022/05/01 09:05:53;;;;;;;4.15;1.95;;;;;;;24.45;16.64;100764.31;6231162;22;20022;-69
2022/05/01 09:08:38;;;;;;;5.68;3.00;;;;;;;21.70;18.72;100741.84;6262760;22;20026;-70
2022/05/01 09:14:27;;;;;;;4.85;2.95;;;;;;;23.91;17.38;100737.78;6285483;22;20480;-68
2022/05/01 09:17:19;;;;;;;4.65;1.77;;;;;;;25.14;17.13;100766.25;6241421;22;20034;-67
2022/05/01 09:20:08;;;;;;;2.53;1.90;;;;;;;25.09;16.22;100757.53;6252436;22;20097;-68
2022/05/01 09:22:55;;;;;;;4.13;1.90;;;;;;;24.91;16.21;100757.81;6250788;22;20054;-68
2022/05/01 09:25:39;;;;;;;2.30;1.38;;;;;;;24.84;16.29;100748.34;6285741;22;20070;-67
2022/05/01 09:28:24;;;;;;;2.97;1.83;;;;;;;25.49;15.54;100743.16;6252296;22;20086;-66
2022/05/01 09:31:08;;;;;;;3.55;1.67;;;;;;;27.63;15.13;100744.28;6285797;22;20078;-69
2022/05/01 09:34:19;;;;;;;2.33;1.58;;;;;;;27.37;15.37;100739.94;6230894;22;20121;-68
2022/05/01 09:37:19;;;;;;;6.93;4.00;;;;;;;26.78;15.13;100736.03;6262247;22;20081;-68
2022/05/01 09:40:04;;;;;;;2.90;1.88;;;;;;;25.93;14.86;100737.47;6285161;22;20050;-68
2022/05/01 09:42:48;;;;;;;3.58;2.03;;;;;;;25.89;15.27;100744.09;6252444;22;20496;-69
2022/05/01 09:45:33;;;;;;;5.60;2.20;;;;;;;28.54;13.74;100736.31;6273708;22;20034;-67
2022/05/01 09:48:20;;;;;;;4.05;1.90;;;;;;;28.47;12.68;100746.88;6285842;22;20058;-68
2022/05/01 09:51:18;;;;;;;3.97;1.70;;;;;;;27.09;13.74;100746.47;6230516;22;20073;-69
2022/05/01 09:54:05;;;;;;;5.45;1.83;;;;;;;27.87;13.10;100737.03;6285016;22;20027;-68
2022/05/01 09:56:57;;;;;;;2.53;1.60;;;;;;;27.32;13.71;100726.63;6251983;22;20078;-68
2022/05/01 09:59:46;;;;;;;6.10;3.58;;;;;;;26.34;14.87;100734.69;6230199;22;20054;-69
2022/05/01 10:02:31;;;;;;;2.97;2.10;;;;;;;26.14;14.96;100721.59;6261436;22;20029;-69
2022/05/01 10:05:16;;;;;;;9.93;6.82;;;;;;;23.88;16.22;100718.97;6284790;22;20030;-69
2022/05/01 10:08:01;;;;;;;4.35;2.35;;;;;;;22.33;17.39;100706.16;6285593;22;20025;-68
2022/05/01 10:10:47;;;;;;;3.58;2.05;;;;;;;23.95;16.59;100706.84;6209170;22;20093;-69
2022/05/01 10:13:33;;;;;;;2.67;1.70;;;;;;;22.87;17.21;100699.63;6285656;22;20024;-67
2022/05/01 10:16:18;;;;;;;5.28;2.63;;;;;;;21.79;18.28;100706.28;6242558;23;20039;-68
2022/05/01 10:19:03;;;;;;;4.97;2.00;;;;;;;22.28;17.83;100689.31;6256239;23;20521;-69
2022/05/01 10:21:50;;;;;;;3.42;2.38;;;;;;;23.76;16.85;100703.44;6254616;23;20109;-71
2022/05/01 10:24:37;;;;;;;7.75;2.63;;;;;;;23.17;16.74;100690.66;6255073;23;20070;-68
2022/05/01 10:27:53;;;;;;;6.00;3.03;;;;;;;25.37;15.97;100686.94;6252455;23;20043;-69
2022/05/01 10:34:28;;;;;;;4.53;2.42;;;;;;;23.92;16.23;100704.31;6252456;23;20031;-70
2022/05/01 10:37:50;;;;;;;3.85;2.08;;;;;;;24.92;16.03;100687.16;6220640;23;20035;-69
2022/05/01 10:41:05;;;;;;;4.55;2.13;;;;;;;24.40;16.59;100691.38;6242630;23;20079;-69
2022/05/01 10:43:57;;;;;;;3.85;1.80;;;;;;;24.63;15.80;100684.53;6082704;23;20264;-68
2022/05/01 10:46:52;;;;;;;5.32;2.30;;;;;;;23.46;16.72;100678.19;6062815;23;20058;-68
2022/05/01 10:49:41;;;;;;;5.05;2.80;;;;;;;24.22;16.29;100673.56;6081655;23;20057;-82
2022/05/01 10:52:28;;;;;;;4.72;2.70;;;;;;;24.34;16.34;100674.63;6104266;23;20078;-69
2022/05/01 10:55:12;;;;;;;8.05;2.30;;;;;;;23.10;16.48;100640.53;6104931;23;20098;-71
2022/05/01 10:58:17;;;;;;;;;;;;;;;22.55;17.90;100655.44;6105280;23;20081;-69
2022/05/01 11:01:01;;;;;;;5.38;2.53;;;;;;;20.68;19.37;100658.69;6055395;23;19978;-69
2022/05/01 11:03:52;;;;;;;9.95;2.53;;;;;;;21.06;19.36;100654.22;6074836;23;20066;-70
2022/05/01 11:06:40;;;;;;;3.40;2.00;;;;;;;21.48;18.95;100636.75;6035045;23;20029;-70
2022/05/01 11:09:25;;;;;;;3.80;2.10;;;;;;;21.10;19.28;100635.13;6083909;23;20048;-70
2022/05/01 11:12:13;;;;;;;4.45;2.33;;;;;;;21.86;18.33;100635.72;6103629;23;20065;-69
2022/05/01 11:15:01;;;;;;;3.72;2.00;;;;;;;21.99;18.07;100631.41;6054170;23;20029;-68
2022/05/01 11:17:51;;;;;;;2.42;1.60;;;;;;;21.08;18.31;100637.00;6084145;23;20029;-68
2022/05/01 11:20:35;;;;;;;11.60;2.38;;;;;;;20.34;19.26;100631.56;6221007;23;20044;-67
2022/05/01 11:23:30;;;;;;;;;;;;;;;19.94;20.27;100625.34;6245875;23;20031;-68
2022/05/01 11:26:19;;;;;;;3.55;2.53;;;;;;;19.09;20.71;100622.72;6223429;23;19961;-67
2022/05/01 11:29:10;;;;;;;4.50;2.13;;;;;;;18.76;21.10;100604.38;6256181;23;20046;-68
2022/05/01 11:31:57;;;;;;;7.20;4.30;;;;;;;18.45;21.88;100620.81;6223295;23;20074;-69
2022/05/01 11:34:49;;;;;;;12.80;5.90;;;;;;;18.28;22.34;100612.50;6232949;23;20521;-66
2022/05/01 11:37:48;;;;;;;7.18;4.53;;;;;;;18.10;22.25;100610.50;6233539;23;20050;-68
2022/05/01 11:40:33;;;;;;;5.03;2.63;;;;;;;18.21;21.93;100610.09;6233125;23;20083;-70
2022/05/01 11:43:19;;;;;;;9.68;4.53;;;;;;;18.44;22.09;100596.72;6255599;23;20030;-67
2022/05/01 11:46:16;;;;;;;7.72;4.70;;;;;;;18.43;22.12;100600.34;6222980;23;20042;-69
2022/05/01 11:49:08;;;;;;;4.53;2.40;;;;;;;18.17;21.93;100592.34;6233042;23;20078;-69
2022/05/01 11:51:57;;;;;;;11.32;2.75;;;;;;;17.86;22.24;100582.78;6200300;23;20492;-73
2022/05/01 11:54:55;;;;;;;8.07;3.85;;;;;;;17.78;22.59;100583.97;6223933;23;20103;-69
2022/05/01 12:03:48;;;;;;;10.07;6.15;;;;;;;16.84;23.73;100585.44;6223835;23;20074;-69
2022/05/01 12:06:35;;;;;;;6.65;2.95;;;;;;;16.79;23.57;100588.28;6181071;23;20120;-68
2022/05/01 12:09:19;;;;;;;6.35;2.50;;;;;;;16.53;23.87;100565.91;6233355;23;20042;-69
2022/05/01 12:12:09;;;;;;;7.32;3.72;;;;;;;16.87;23.82;100575.50;6223417;23;20521;-72
2022/05/01 12:14:54;;;;;;;8.77;4.63;;;;;;;17.25;23.76;100572.41;6202024;23;20140;-69
2022/05/01 12:17:42;;;;;;;7.10;3.58;;;;;;;17.48;23.21;100569.84;6246146;23;20058;-69
2022/05/01 12:20:34;;;;;;;6.75;2.72;;;;;;;17.99;22.77;100565.28;6181597;23;20489;-72
2022/05/01 12:23:20;;;;;;;12.80;5.10;;;;;;;18.31;22.94;100561.34;6223249;23;20030;-64
2022/05/01 12:26:05;;;;;;;5.85;2.85;;;;;;;18.22;21.99;100555.47;6255457;23;20094;-69
2022/05/01 12:28:49;;;;;;;5.03;2.80;;;;;;;17.64;22.23;100549.59;6255752;23;20026;-64
2022/05/01 12:32:08;;;;;;;4.15;2.40;;;;;;;17.55;22.92;100560.66;6255992;23;20031;-66
2022/05/01 12:34:52;;;;;;;6.93;2.83;;;;;;;17.34;22.35;100542.63;6255555;23;20485;-71
2022/05/01 12:37:38;;;;;;;6.22;2.20;;;;;;;17.35;23.01;100532.75;6211520;23;20031;-64
2022/05/01 12:46:30;;;;;;;11.30;3.83;;;;;;;18.17;22.26;100531.50;6255595;23;20119;-69
2022/05/01 12:49:24;;;;;;;6.38;2.92;;;;;;;18.07;22.44;100524.72;6255885;23;20125;-66
2022/05/01 12:52:29;;;;;;;3.55;1.80;;;;;;;17.93;21.54;100525.22;6256407;23;20062;-69
2022/05/01 12:55:19;;;;;;;3.28;1.60;;;;;;;17.19;21.68;100529.75;6256412;23;20458;-69
2022/05/01 12:58:11;;;;;;;4.65;2.13;;;;;;;16.86;21.87;100536.22;6223258;23;20047;-69
2022/05/01 13:00:59;;;;;;;4.72;2.25;;;;;;;17.05;22.57;100529.34;6233103;23;20024;-70
2022/05/01 13:03:44;;;;;;;5.82;2.65;;;;;;;16.99;22.93;100518.84;6212052;23;20051;-71
2022/05/01 13:06:38;;;;;;;4.88;2.30;;;;;;;16.95;22.95;100506.47;6210516;23;20031;-68
2022/05/01 13:09:23;;;;;;;7.22;2.60;;;;;;;16.62;22.84;100502.22;6255488;23;20358;-69
2022/05/01 13:12:11;;;;;;;12.02;4.60;;;;;;;16.75;22.97;100495.56;6180547;23;20501;-69
2022/05/01 13:14:59;;;;;;;5.68;2.45;;;;;;;17.09;23.48;100497.97;6255455;23;20047;-70
2022/05/01 13:18:00;;;;;;;4.80;2.10;;;;;;;17.17;23.02;100506.59;6286307;22;20035;-73
2022/05/01 13:20:45;;;;;;;6.07;2.10;;;;;;;16.73;22.19;100505.44;6286142;22;20047;-65
2022/05/01 13:23:29;;;;;;;4.15;2.30;;;;;;;16.54;22.46;100500.75;6284681;22;20358;-71
2022/05/01 13:26:14;;;;;;;2.90;1.85;;;;;;;16.45;23.98;100507.25;6285595;22;20121;-72
2022/05/01 13:28:58;;;;;;;7.18;2.28;;;;;;;16.46;24.05;100497.44;6241097;22;20358;-70
2022/05/01 13:31:46;;;;;;;4.30;1.80;;;;;;;16.62;23.35;100501.38;6285508;22;20495;-71